Time;durP1;ratioP1;P1;durP2;ratioP2;P2;SDS_P1;SDS_P2;PMS_P1;PMS_P2;Temp;Humidity;BMP_temperature;BMP_pressure;BME280_temperature;BME280_humidity;BME280_pressure;Samples;Min_cycle;Max_cycle;Signal;HPM_P1;HPM_P2
2021/04/28 00:00:20;;;;;;;5.13;3.45;;;13.00;58.00;;;;;;5095918;28;20208;-69
2021/04/28 00:02:46;;;;;;;4.68;3.35;;;13.00;58.10;;;;;;5099364;28;20223;-69
2021/04/28 00:05:14;;;;;;;3.97;3.60;;;13.00;58.20;;;;;;5110694;28;20624;-69
2021/04/28 00:07:40;;;;;;;3.35;2.70;;;13.00;58.20;;;;;;5097215;28;20194;-69
2021/04/28 00:10:08;;;;;;;5.88;3.90;;;12.90;58.20;;;;;;5099363;28;20201;-69
2021/04/28 00:12:34;;;;;;;5.20;3.70;;;12.90;58.20;;;;;;5090435;28;20197;-68
2021/04/28 00:15:01;;;;;;;3.08;2.42;;;12.90;58.30;;;;;;5090681;28;20625;-69
2021/04/28 00:17:28;;;;;;;5.50;3.20;;;12.90;58.30;;;;;;5089457;28;20295;-68
2021/04/28 00:19:54;;;;;;;4.43;3.00;;;12.90;58.40;;;;;;5091076;28;20206;-68
2021/04/28 00:22:20;;;;;;;4.32;3.33;;;12.90;58.40;;;;;;5101824;28;20197;-68
2021/04/28 00:24:46;;;;;;;4.25;3.33;;;12.90;58.40;;;;;;5109301;28;20229;-68
2021/04/28 00:27:12;;;;;;;3.72;3.30;;;12.90;58.60;;;;;;5100072;28;20203;-68
2021/04/28 00:29:38;;;;;;;4.38;3.50;;;12.80;58.50;;;;;;5090759;28;20200;-68
2021/04/28 00:32:05;;;;;;;5.78;3.42;;;12.80;58.60;;;;;;5100328;28;20204;-68
2021/04/28 00:34:32;;;;;;;4.55;3.45;;;12.80;58.60;;;;;;5090071;28;20648;-68
2021/04/28 00:36:59;;;;;;;3.97;3.20;;;12.80;58.70;;;;;;5097319;28;20201;-68
2021/04/28 00:39:25;;;;;;;4.50;4.03;;;12.70;58.60;;;;;;5094709;28;20580;-68
2021/04/28 00:41:51;;;;;;;3.88;3.47;;;12.70;58.70;;;;;;5109674;28;20201;-68
2021/04/28 00:44:18;;;;;;;5.10;3.58;;;12.70;58.80;;;;;;5105066;28;20265;-68
2021/04/28 00:46:45;;;;;;;3.55;3.13;;;12.70;58.80;;;;;;5105952;28;20194;-69
2021/04/28 00:49:11;;;;;;;6.50;5.90;;;12.70;58.90;;;;;;5094965;28;20826;-68
2021/04/28 00:51:39;;;;;;;4.55;3.33;;;12.70;58.90;;;;;;5096115;28;20228;-69
2021/04/28 00:54:06;;;;;;;4.13;3.72;;;12.60;58.90;;;;;;5093739;28;20269;-69
2021/04/28 00:56:32;;;;;;;4.15;3.20;;;12.60;58.90;;;;;;5097299;28;20201;-69
2021/04/28 00:58:58;;;;;;;3.85;3.40;;;12.60;59.00;;;;;;5093531;28;20205;-69
2021/04/28 01:01:24;;;;;;;3.50;3.20;;;12.60;59.10;;;;;;5093682;28;20193;-68
2021/04/28 01:03:51;;;;;;;3.88;3.42;;;12.60;59.10;;;;;;5095543;28;20579;-69
2021/04/28 01:06:17;;;;;;;5.85;3.50;;;12.60;59.20;;;;;;5111596;28;20199;-69
2021/04/28 01:08:45;;;;;;;5.05;4.07;;;12.60;59.20;;;;;;5099740;28;20193;-69
2021/04/28 01:11:12;;;;;;;3.97;3.25;;;12.50;59.20;;;;;;5108737;28;20197;-69
2021/04/28 01:13:39;;;;;;;4.55;3.30;;;12.50;59.20;;;;;;5103112;28;20312;-69
2021/04/28 01:16:05;;;;;;;4.75;3.80;;;12.50;59.30;;;;;;5093811;28;20189;-69
2021/04/28 01:18:31;;;;;;;3.58;3.28;;;12.50;59.30;;;;;;5101158;28;20204;-69
2021/04/28 01:20:58;;;;;;;3.50;3.20;;;12.50;59.40;;;;;;5114132;28;20669;-69
2021/04/28 01:23:25;;;;;;;4.10;2.90;;;12.50;59.40;;;;;;5098850;27;20225;-69
2021/04/28 01:25:51;;;;;;;4.50;3.00;;;12.50;59.50;;;;;;5093402;28;20212;-69
2021/04/28 01:28:20;;;;;;;3.78;3.47;;;12.40;59.40;;;;;;5093967;28;20216;-69
2021/04/28 01:30:50;;;;;;;3.15;2.85;;;12.40;59.60;;;;;;5090780;28;20255;-68
2021/04/28 01:33:21;;;;;;;4.07;3.15;;;12.40;59.60;;;;;;5110067;28;20268;-68
2021/04/28 01:35:51;;;;;;;3.17;2.88;;;12.40;59.60;;;;;;5111302;28;20219;-69
2021/04/28 01:38:19;;;;;;;4.28;3.10;;;12.40;59.70;;;;;;5103409;28;20196;-68
2021/04/28 01:40:47;;;;;;;4.47;2.97;;;12.40;59.70;;;;;;5103511;28;20204;-68
2021/04/28 01:43:14;;;;;;;3.22;2.92;;;12.40;59.70;;;;;;5105279;28;20189;-69
2021/04/28 01:45:41;;;;;;;4.43;3.15;;;12.30;59.80;;;;;;5104913;28;20204;-69
2021/04/28 01:48:09;;;;;;;2.58;2.22;;;12.30;59.80;;;;;;5093121;28;20224;-69
2021/04/28 01:50:36;;;;;;;3.45;3.13;;;12.30;59.90;;;;;;5092923;28;20209;-69
2021/04/28 01:53:03;;;;;;;3.67;3.38;;;12.30;60.00;;;;;;5097294;28;20218;-68
2021/04/28 01:55:30;;;;;;;3.50;2.75;;;12.30;60.00;;;;;;5094083;28;20243;-69
2021/04/28 01:58:01;;;;;;;3.42;2.45;;;12.30;60.10;;;;;;5092317;28;20205;-69
2021/04/28 02:00:27;;;;;;;3.72;3.00;;;12.20;60.00;;;;;;5105180;28;20205;-69
2021/04/28 02:02:54;;;;;;;3.20;2.90;;;12.20;60.20;;;;;;5102259;28;20238;-69
2021/04/28 02:05:22;;;;;;;5.97;3.25;;;12.20;60.30;;;;;;5097474;28;20540;-69
2021/04/28 02:07:48;;;;;;;2.60;2.22;;;12.20;60.40;;;;;;5108216;28;20215;-69
2021/04/28 02:10:15;;;;;;;4.53;3.05;;;12.20;60.30;;;;;;5100571;28;20628;-69
2021/04/28 02:12:42;;;;;;;3.42;3.13;;;12.20;60.40;;;;;;5109434;28;20197;-69
2021/04/28 02:15:11;;;;;;;3.33;2.70;;;12.20;60.50;;;;;;5095246;28;20204;-69
2021/04/28 02:17:39;;;;;;;3.45;3.15;;;12.10;60.50;;;;;;5096424;28;20193;-70
2021/04/28 02:20:07;;;;;;;5.28;2.72;;;12.10;60.70;;;;;;5109526;28;20201;-70
2021/04/28 02:22:36;;;;;;;2.60;2.40;;;12.10;60.70;;;;;;5104886;27;20288;-69
2021/04/28 02:25:03;;;;;;;4.47;2.92;;;12.10;60.70;;;;;;5112510;28;20284;-69
2021/04/28 02:27:29;;;;;;;2.40;2.17;;;12.00;60.70;;;;;;5105807;28;20678;-70
2021/04/28 02:29:55;;;;;;;3.63;3.30;;;12.00;60.90;;;;;;5092320;28;20533;-69
2021/04/28 02:32:22;;;;;;;2.53;2.33;;;12.00;60.90;;;;;;5094964;28;20205;-70
2021/04/28 02:34:49;;;;;;;2.28;2.08;;;12.00;60.90;;;;;;5112252;28;20224;-70
2021/04/28 02:37:18;;;;;;;3.67;2.75;;;12.00;61.00;;;;;;5106349;28;20193;-70
2021/04/28 02:39:49;;;;;;;3.20;2.90;;;12.00;61.10;;;;;;5104018;28;20209;-70
2021/04/28 02:42:16;;;;;;;3.08;2.70;;;12.00;61.20;;;;;;5101241;28;20247;-70
2021/04/28 02:44:45;;;;;;;2.83;2.63;;;12.00;61.20;;;;;;5098054;28;20262;-70
2021/04/28 02:47:12;;;;;;;6.00;2.83;;;11.90;61.20;;;;;;5092014;28;20198;-69
2021/04/28 02:49:42;;;;;;;2.90;2.60;;;11.90;61.20;;;;;;5092686;28;20718;-69
2021/04/28 02:52:09;;;;;;;2.75;2.42;;;11.90;61.30;;;;;;5099884;28;20202;-68
2021/04/28 02:54:36;;;;;;;3.80;2.63;;;11.90;61.50;;;;;;5093195;28;20216;-69
2021/04/28 02:57:03;;;;;;;2.78;2.40;;;11.90;61.50;;;;;;5094832;28;20295;-68
2021/04/28 02:59:29;;;;;;;2.88;2.50;;;11.90;61.60;;;;;;5095813;28;20197;-69
2021/04/28 03:01:55;;;;;;;3.60;2.42;;;11.80;61.50;;;;;;5108195;28;20549;-68
2021/04/28 03:04:22;;;;;;;4.00;3.33;;;11.80;61.70;;;;;;5093929;28;20246;-68
2021/04/28 03:06:50;;;;;;;4.13;3.05;;;11.80;61.80;;;;;;5104470;28;20193;-71
2021/04/28 03:09:16;;;;;;;2.58;1.90;;;11.80;61.80;;;;;;5097382;28;20201;-69
2021/04/28 03:11:44;;;;;;;2.85;2.55;;;11.80;61.90;;;;;;5104050;28;20270;-69
2021/04/28 03:14:10;;;;;;;2.72;2.53;;;11.80;62.00;;;;;;5094441;28;20281;-69
2021/04/28 03:16:37;;;;;;;2.85;2.55;;;11.70;61.90;;;;;;5093722;28;20637;-69
2021/04/28 03:19:05;;;;;;;4.53;3.00;;;11.70;61.90;;;;;;5096070;28;20193;-69
2021/04/28 03:21:35;;;;;;;4.15;3.10;;;11.70;62.00;;;;;;5098384;28;20193;-69
2021/04/28 03:24:03;;;;;;;3.65;2.25;;;11.70;62.00;;;;;;5107700;28;20274;-69
2021/04/28 03:26:29;;;;;;;3.03;2.72;;;11.70;62.00;;;;;;5111756;28;20207;-69
2021/04/28 03:28:57;;;;;;;2.88;2.58;;;11.70;62.10;;;;;;5092818;28;20201;-69
2021/04/28 03:31:23;;;;;;;4.50;2.92;;;11.70;62.10;;;;;;5094043;28;20220;-69
2021/04/28 03:33:50;;;;;;;3.92;2.60;;;11.70;62.20;;;;;;5099635;28;20213;-69
2021/04/28 03:36:16;;;;;;;3.13;2.78;;;11.60;62.20;;;;;;5090691;28;20201;-69
2021/04/28 03:38:42;;;;;;;2.83;2.05;;;11.60;62.30;;;;;;5094502;28;20201;-69
2021/04/28 03:41:09;;;;;;;2.75;2.45;;;11.60;62.30;;;;;;5090839;28;20205;-70
2021/04/28 03:43:35;;;;;;;3.10;2.58;;;11.60;62.40;;;;;;5090252;28;20649;-69
2021/04/28 03:46:02;;;;;;;4.32;2.92;;;11.60;62.50;;;;;;5100137;28;20770;-69
2021/04/28 03:48:28;;;;;;;3.67;2.70;;;11.60;62.50;;;;;;5098711;28;20242;-70
2021/04/28 03:50:54;;;;;;;3.22;2.83;;;11.60;62.50;;;;;;5090911;28;20911;-70
2021/04/28 03:53:21;;;;;;;4.88;3.08;;;11.60;62.60;;;;;;5103083;28;20269;-69
2021/04/28 03:55:47;;;;;;;5.30;2.83;;;11.50;62.50;;;;;;5094978;28;20197;-70
2021/04/28 03:58:14;;;;;;;5.35;2.40;;;11.50;62.60;;;;;;5100982;28;20202;-70
2021/04/28 04:00:40;;;;;;;3.42;3.10;;;11.50;62.60;;;;;;5089864;28;20193;-70
2021/04/28 04:03:06;;;;;;;3.05;2.35;;;11.50;62.60;;;;;;5098398;28;20193;-70
2021/04/28 04:05:33;;;;;;;3.15;2.30;;;11.50;62.60;;;;;;5097415;28;20201;-70
2021/04/28 04:07:59;;;;;;;3.15;2.85;;;11.50;62.70;;;;;;5108662;28;20198;-70
2021/04/28 04:10:25;;;;;;;4.35;2.95;;;11.50;62.60;;;;;;5099657;28;20201;-70
2021/04/28 04:12:51;;;;;;;4.25;3.13;;;11.50;62.60;;;;;;5099334;28;20204;-70
2021/04/28 04:15:18;;;;;;;2.45;2.25;;;11.40;62.60;;;;;;5097925;28;20250;-69
2021/04/28 04:17:44;;;;;;;4.93;2.90;;;11.40;62.70;;;;;;5099918;28;20259;-69
2021/04/28 04:20:11;;;;;;;3.00;2.58;;;11.40;62.80;;;;;;5090660;28;20197;-69
2021/04/28 04:22:37;;;;;;;3.13;2.83;;;11.40;62.80;;;;;;5094774;28;20238;-69
2021/04/28 04:25:05;;;;;;;6.20;2.90;;;11.40;62.80;;;;;;5094741;28;20262;-69
2021/04/28 04:27:31;;;;;;;3.58;3.28;;;11.40;62.90;;;;;;5098201;28;20196;-69
2021/04/28 04:29:58;;;;;;;3.50;3.20;;;11.30;62.70;;;;;;5106849;28;20189;-68
2021/04/28 04:32:25;;;;;;;3.30;3.00;;;11.30;62.80;;;;;;5106884;28;20227;-69
2021/04/28 04:34:51;;;;;;;3.35;2.92;;;11.30;62.80;;;;;;5097139;28;20224;-69
2021/04/28 04:37:17;;;;;;;5.57;3.40;;;11.30;62.80;;;;;;5106734;28;20192;-70
2021/04/28 04:39:43;;;;;;;3.53;2.75;;;11.30;62.80;;;;;;5099148;28;20204;-69
2021/04/28 04:42:11;;;;;;;3.10;2.35;;;11.30;62.90;;;;;;5095631;28;20205;-69
2021/04/28 04:44:37;;;;;;;2.50;2.30;;;11.30;62.90;;;;;;5110707;28;20196;-69
2021/04/28 04:47:03;;;;;;;3.30;3.03;;;11.30;62.90;;;;;;5113956;28;20204;-69
2021/04/28 04:49:30;;;;;;;2.83;2.63;;;11.20;62.80;;;;;;5106052;28;20587;-69
2021/04/28 04:51:56;;;;;;;3.40;3.00;;;11.20;62.90;;;;;;5099185;28;20201;-69
2021/04/28 04:54:23;;;;;;;3.20;2.80;;;11.20;62.90;;;;;;5102295;28;20213;-69
2021/04/28 04:56:49;;;;;;;3.45;2.90;;;11.20;62.90;;;;;;5110001;28;20213;-69
2021/04/28 04:59:15;;;;;;;3.53;2.53;;;11.20;63.00;;;;;;5099859;28;20248;-69
2021/04/28 05:01:41;;;;;;;2.67;2.45;;;11.20;63.10;;;;;;5112791;28;20193;-69
2021/04/28 05:04:07;;;;;;;2.65;2.45;;;11.10;62.90;;;;;;5110007;28;20537;-69
2021/04/28 05:06:34;;;;;;;3.83;2.67;;;11.10;63.90;;;;;;5103530;28;20200;-69
2021/04/28 05:09:00;;;;;;;4.95;3.58;;;11.10;63.10;;;;;;5093001;28;20201;-69
2021/04/28 05:11:27;;;;;;;3.90;3.38;;;11.10;63.30;;;;;;5093138;28;20270;-69
2021/04/28 05:13:53;;;;;;;4.28;3.03;;;11.10;63.20;;;;;;5096419;28;20217;-69
2021/04/28 05:16:19;;;;;;;3.50;3.20;;;11.10;63.20;;;;;;5093633;28;20201;-70
2021/04/28 05:18:45;;;;;;;4.10;3.25;;;11.10;63.20;;;;;;5093934;28;20657;-69
2021/04/28 05:21:11;;;;;;;4.20;3.50;;;11.10;63.30;;;;;;5101450;28;20209;-69
2021/04/28 05:23:38;;;;;;;3.33;3.03;;;11.10;63.40;;;;;;5096967;28;20222;-69
2021/04/28 05:26:05;;;;;;;4.10;3.38;;;11.10;63.50;;;;;;5110199;28;20200;-69
2021/04/28 05:28:31;;;;;;;4.32;3.55;;;11.00;63.50;;;;;;5102060;28;20197;-69
2021/04/28 05:30:57;;;;;;;5.10;3.95;;;11.00;63.50;;;;;;5098444;28;20196;-69
2021/04/28 05:33:23;;;;;;;5.65;4.18;;;11.10;63.50;;;;;;5107682;28;20588;-69
2021/04/28 05:35:49;;;;;;;6.07;3.40;;;11.10;63.50;;;;;;5096629;28;20194;-68
2021/04/28 05:38:16;;;;;;;3.13;2.83;;;11.10;63.40;;;;;;5093009;28;20247;-69
2021/04/28 05:40:43;;;;;;;3.70;3.20;;;11.20;63.20;;;;;;5098034;28;20727;-70
2021/04/28 05:43:09;;;;;;;4.97;3.75;;;11.40;62.50;;;;;;5098436;28;20246;-68
2021/04/28 05:45:43;;;;;;;4.97;4.10;;;11.60;61.90;;;;;;5113349;28;20715;-70
2021/04/28 05:48:10;;;;;;;5.60;3.92;;;11.80;61.30;;;;;;5109709;28;20278;-68
2021/04/28 05:50:36;;;;;;;3.50;3.20;;;12.00;60.90;;;;;;5107608;28;20207;-68
2021/04/28 05:53:02;;;;;;;3.05;2.60;;;12.20;60.40;;;;;;5095448;28;20546;-68
2021/04/28 05:55:28;;;;;;;8.38;3.97;;;12.40;60.00;;;;;;5098714;28;20201;-69
2021/04/28 05:57:55;;;;;;;3.30;2.80;;;12.60;59.70;;;;;;5112172;28;20193;-69
2021/04/28 06:00:22;;;;;;;3.30;2.85;;;12.80;59.40;;;;;;5104150;28;20573;-69
2021/04/28 06:02:49;;;;;;;4.13;3.53;;;12.90;59.10;;;;;;5102108;28;20220;-69
2021/04/28 06:05:15;;;;;;;4.25;3.85;;;13.10;58.90;;;;;;5111197;28;20193;-69
2021/04/28 06:07:41;;;;;;;6.53;3.13;;;13.20;58.60;;;;;;5096966;28;20255;-69
2021/04/28 06:10:09;;;;;;;4.72;3.55;;;13.40;58.50;;;;;;5105327;28;20193;-69
2021/04/28 06:12:35;;;;;;;5.60;2.50;;;13.50;58.20;;;;;;5111378;28;20189;-69
2021/04/28 06:15:02;;;;;;;4.05;3.65;;;13.60;58.00;;;;;;5093572;28;20221;-70
2021/04/28 06:17:28;;;;;;;5.95;3.20;;;13.60;57.80;;;;;;5100372;28;20637;-69
2021/04/28 06:19:55;;;;;;;3.60;3.05;;;13.70;58.20;;;;;;5092458;28;20198;-69
2021/04/28 06:22:21;;;;;;;4.40;4.03;;;13.80;57.60;;;;;;5106346;28;20193;-69
2021/04/28 06:24:48;;;;;;;4.50;3.08;;;13.90;57.40;;;;;;5112542;28;20251;-69
2021/04/28 06:27:14;;;;;;;3.65;3.20;;;14.00;57.30;;;;;;5101996;28;20188;-70
2021/04/28 06:29:41;;;;;;;3.83;3.35;;;14.00;57.20;;;;;;5098064;28;20209;-70
2021/04/28 06:32:09;;;;;;;3.97;3.53;;;14.10;57.10;;;;;;5105713;28;20200;-70
2021/04/28 06:34:35;;;;;;;3.90;3.55;;;14.20;57.00;;;;;;5099926;28;20236;-70
2021/04/28 06:37:01;;;;;;;3.65;2.92;;;14.30;56.90;;;;;;5106422;28;20204;-70
2021/04/28 06:39:27;;;;;;;5.47;3.35;;;14.40;56.90;;;;;;5094911;28;20197;-70
2021/04/28 06:41:53;;;;;;;4.90;3.55;;;14.50;56.90;;;;;;5098078;28;20193;-69
2021/04/28 06:44:20;;;;;;;9.05;3.38;;;14.70;56.70;;;;;;5097951;28;20540;-69
2021/04/28 06:46:46;;;;;;;5.78;2.92;;;14.80;56.50;;;;;;5092067;28;20205;-70
2021/04/28 06:49:13;;;;;;;3.70;3.10;;;14.90;56.30;;;;;;5107228;28;20197;-69
2021/04/28 06:51:39;;;;;;;4.50;3.30;;;15.00;56.30;;;;;;5091710;28;20200;-69
2021/04/28 06:54:06;;;;;;;3.58;3.28;;;15.00;56.30;;;;;;5091531;28;20228;-70
2021/04/28 06:56:32;;;;;;;3.95;3.00;;;15.10;56.30;;;;;;5091798;28;20823;-70
2021/04/28 06:58:58;;;;;;;4.57;2.53;;;15.20;56.20;;;;;;5100820;28;20200;-70
2021/04/28 07:01:25;;;;;;;5.05;3.30;;;15.30;56.30;;;;;;5106729;28;20204;-70
2021/04/28 07:03:51;;;;;;;3.65;2.88;;;15.30;56.20;;;;;;5091158;28;20201;-69
2021/04/28 07:06:18;;;;;;;4.15;3.20;;;15.40;56.10;;;;;;5099980;28;20201;-69
2021/04/28 07:08:46;;;;;;;3.92;3.05;;;15.50;56.10;;;;;;5094964;28;20208;-69
2021/04/28 07:11:12;;;;;;;3.67;3.38;;;15.60;56.00;;;;;;5102330;28;20209;-69
2021/04/28 07:13:38;;;;;;;3.38;3.05;;;15.70;55.80;;;;;;5092410;28;20220;-69
2021/04/28 07:16:05;;;;;;;5.90;3.88;;;15.80;55.80;;;;;;5103209;28;20553;-68
2021/04/28 07:18:31;;;;;;;3.33;3.03;;;15.80;55.70;;;;;;5091587;28;20750;-70
2021/04/28 07:20:57;;;;;;;5.40;3.15;;;15.80;55.80;;;;;;5108711;28;20204;-68
2021/04/28 07:23:24;;;;;;;6.40;3.60;;;15.90;55.80;;;;;;5096649;28;20236;-68
2021/04/28 07:25:50;;;;;;;2.80;2.60;;;16.00;55.60;;;;;;5096376;28;20618;-69
2021/04/28 07:28:17;;;;;;;5.22;2.75;;;16.00;55.70;;;;;;5103379;28;20640;-70
2021/04/28 07:30:43;;;;;;;4.75;2.97;;;16.10;55.70;;;;;;5106944;28;20211;-69
2021/04/28 07:33:09;;;;;;;3.35;3.05;;;16.20;55.60;;;;;;5097655;28;20545;-70
2021/04/28 07:35:35;;;;;;;3.85;2.80;;;16.20;55.50;;;;;;5105736;28;20197;-69
2021/04/28 07:38:02;;;;;;;3.88;2.67;;;16.30;55.50;;;;;;5094368;28;20197;-69
2021/04/28 07:40:29;;;;;;;2.85;2.65;;;16.30;55.50;;;;;;5099113;28;20253;-70
2021/04/28 07:42:55;;;;;;;3.25;2.75;;;16.40;55.50;;;;;;5095391;28;20201;-69
2021/04/28 07:45:21;;;;;;;3.30;3.00;;;16.50;55.50;;;;;;5109837;28;20200;-69
2021/04/28 07:47:47;;;;;;;3.40;3.10;;;16.60;55.40;;;;;;5104471;28;20197;-69
2021/04/28 07:50:15;;;;;;;3.75;3.00;;;16.60;55.10;;;;;;5100838;28;20196;-68
2021/04/28 07:52:42;;;;;;;6.15;2.47;;;16.60;55.10;;;;;;5096430;28;20205;-69
2021/04/28 07:55:09;;;;;;;3.42;3.10;;;16.70;55.20;;;;;;5090250;28;20228;-69
2021/04/28 07:57:36;;;;;;;3.55;3.25;;;16.70;55.10;;;;;;5095826;28;20200;-69
2021/04/28 08:00:06;;;;;;;5.78;2.95;;;16.80;54.90;;;;;;5103693;28;20854;-69
2021/04/28 08:02:32;;;;;;;2.33;2.13;;;16.80;54.90;;;;;;5088058;28;20201;-69
2021/04/28 08:04:58;;;;;;;5.57;4.15;;;16.90;55.20;;;;;;5095835;28;20193;-70
2021/04/28 08:07:24;;;;;;;4.30;2.80;;;17.00;55.10;;;;;;5101187;28;20198;-70
2021/04/28 08:09:50;;;;;;;2.75;2.55;;;17.00;55.10;;;;;;5102823;28;20198;-69
2021/04/28 08:12:16;;;;;;;3.92;2.78;;;17.10;55.00;;;;;;5100826;28;20208;-69
2021/04/28 08:14:43;;;;;;;2.70;2.30;;;17.10;54.90;;;;;;5090043;28;20213;-69
2021/04/28 08:17:10;;;;;;;3.53;2.38;;;17.20;55.10;;;;;;5103747;28;20197;-69
2021/04/28 08:19:38;;;;;;;3.20;2.90;;;17.20;54.90;;;;;;5102752;28;20251;-69
2021/04/28 08:22:04;;;;;;;3.75;2.70;;;17.30;54.80;;;;;;5090534;28;20201;-69
2021/04/28 08:24:30;;;;;;;4.35;3.50;;;17.30;54.70;;;;;;5093030;28;20226;-69
2021/04/28 08:26:56;;;;;;;3.47;3.15;;;17.30;54.70;;;;;;5098768;28;20204;-69
2021/04/28 08:29:23;;;;;;;3.53;2.90;;;17.30;54.90;;;;;;5092206;28;20327;-68
2021/04/28 08:31:50;;;;;;;2.95;2.50;;;17.30;54.30;;;;;;5091637;28;20204;-77
2021/04/28 08:34:16;;;;;;;6.15;3.90;;;17.30;54.90;;;;;;5093930;28;20213;-69
2021/04/28 08:36:42;;;;;;;5.18;3.78;;;17.30;54.70;;;;;;5090601;28;20205;-70
2021/04/28 08:39:08;;;;;;;3.97;3.50;;;17.40;54.20;;;;;;5103493;28;20253;-69
2021/04/28 08:41:36;;;;;;;3.35;3.05;;;17.40;54.10;;;;;;5106594;28;20219;-69
2021/04/28 08:44:04;;;;;;;3.95;3.28;;;17.40;54.60;;;;;;5103405;28;20233;-69
2021/04/28 08:46:30;;;;;;;5.85;4.07;;;17.40;54.60;;;;;;5103989;28;20205;-68
2021/04/28 08:48:57;;;;;;;3.10;2.80;;;17.40;54.10;;;;;;5090400;28;20283;-69
2021/04/28 08:51:24;;;;;;;3.97;3.55;;;17.40;54.80;;;;;;5092549;28;20205;-69
2021/04/28 08:53:50;;;;;;;3.15;2.85;;;17.50;54.70;;;;;;5100768;28;20685;-68
2021/04/28 08:56:17;;;;;;;3.70;3.33;;;17.50;54.90;;;;;;5090123;28;20220;-69
2021/04/28 08:58:43;;;;;;;5.10;4.28;;;17.50;54.70;;;;;;5091114;28;20254;-68
2021/04/28 09:01:26;;;;;;;3.88;3.40;;;17.60;54.40;;;;;;5102166;28;20279;-68
2021/04/28 09:03:53;;;;;;;5.68;5.15;;;17.50;54.40;;;;;;5109186;28;20773;-69
2021/04/28 09:06:28;;;;;;;7.55;5.80;;;17.60;54.10;;;;;;5100047;27;20841;-69
2021/04/28 09:08:55;;;;;;;4.55;4.13;;;17.50;54.20;;;;;;5092607;28;20204;-69
2021/04/28 09:11:40;;;;;;;9.40;4.70;;;17.40;54.30;;;;;;5093867;28;20208;-68
2021/04/28 09:14:10;;;;;;;9.45;5.13;;;17.40;54.50;;;;;;5094441;28;20209;-68
2021/04/28 09:16:37;;;;;;;3.30;3.00;;;17.30;54.80;;;;;;5093422;28;20198;-68
2021/04/28 09:19:04;;;;;;;4.40;3.80;;;17.30;55.30;;;;;;5095947;28;20193;-68
2021/04/28 09:21:51;;;;;;;6.18;3.30;;;17.30;55.30;;;;;;5094734;28;20193;-68
2021/04/28 09:24:19;;;;;;;8.05;4.47;;;17.30;55.10;;;;;;5104910;28;20220;-68
2021/04/28 09:26:46;;;;;;;6.60;4.15;;;17.30;55.00;;;;;;5106976;28;20193;-69
2021/04/28 09:29:17;;;;;;;9.85;5.60;;;17.30;54.50;;;;;;5098548;28;20193;-68
2021/04/28 09:32:01;;;;;;;4.43;4.03;;;17.30;54.60;;;;;;5094194;28;20213;-69
2021/04/28 09:34:38;;;;;;;4.75;4.18;;;17.30;55.00;;;;;;5093342;28;20209;-69
2021/04/28 09:37:13;;;;;;;7.75;5.10;;;17.40;54.90;;;;;;5093231;28;20197;-68
2021/04/28 09:39:45;;;;;;;5.28;4.78;;;17.30;54.40;;;;;;5093484;28;20839;-68
2021/04/28 09:42:12;;;;;;;9.77;5.75;;;17.30;55.10;;;;;;5094963;28;20280;-69
2021/04/28 09:44:44;;;;;;;14.23;6.15;;;17.30;54.40;;;;;;5095568;28;20190;-69
2021/04/28 09:47:14;;;;;;;7.35;4.68;;;17.30;54.50;;;;;;5108730;28;20192;-69
2021/04/28 09:49:52;;;;;;;7.60;5.22;;;17.30;54.40;;;;;;5096055;28;20533;-69
2021/04/28 09:52:22;;;;;;;12.60;7.68;;;17.30;54.40;;;;;;5093851;28;20669;-69
2021/04/28 09:54:50;;;;;;;6.10;5.35;;;17.20;54.40;;;;;;5100429;28;20265;-69
2021/04/28 09:57:18;;;;;;;9.98;5.53;;;17.20;53.50;;;;;;5098360;28;20243;-69
2021/04/28 09:59:49;;;;;;;8.63;5.80;;;17.20;54.40;;;;;;5093264;28;20216;-69
2021/04/28 10:02:24;;;;;;;7.65;4.72;;;17.20;53.60;;;;;;5112084;28;20412;-69
2021/04/28 10:04:51;;;;;;;12.10;4.93;;;17.20;54.20;;;;;;5112996;27;20760;-70
2021/04/28 10:07:25;;;;;;;3.95;3.55;;;17.20;54.20;;;;;;5099652;28;20561;-69
2021/04/28 10:09:52;;;;;;;5.82;5.20;;;17.20;54.30;;;;;;5092428;28;20205;-73
2021/04/28 10:12:20;;;;;;;6.40;5.03;;;17.20;54.00;;;;;;5093135;28;20216;-69
2021/04/28 10:14:46;;;;;;;8.18;4.55;;;17.20;54.40;;;;;;5091840;28;20217;-69
2021/04/28 10:17:13;;;;;;;5.20;4.50;;;17.20;54.40;;;;;;5116983;27;20216;-69
2021/04/28 10:19:40;;;;;;;6.82;4.57;;;17.20;54.00;;;;;;5097889;27;20882;-69
2021/04/28 10:22:09;;;;;;;5.00;4.50;;;17.20;54.00;;;;;;5099712;27;20209;-69
2021/04/28 10:24:37;;;;;;;7.65;4.65;;;17.20;54.40;;;;;;5112732;28;20224;-68
2021/04/28 10:27:03;;;;;;;4.05;3.65;;;17.20;54.00;;;;;;5098813;28;20198;-69
2021/04/28 10:29:33;;;;;;;6.18;5.30;;;17.20;54.20;;;;;;5092143;28;20536;-69
2021/04/28 10:32:00;;;;;;;5.22;4.78;;;17.20;54.00;;;;;;5091967;28;20289;-69
2021/04/28 10:34:30;;;;;;;4.72;4.30;;;17.20;54.00;;;;;;5099454;28;20212;-69
2021/04/28 10:36:58;;;;;;;6.82;5.75;;;17.20;53.40;;;;;;5104544;28;20202;-69
2021/04/28 10:39:26;;;;;;;5.32;4.82;;;17.20;53.70;;;;;;5098270;28;20205;-68
2021/04/28 10:41:55;;;;;;;6.40;4.78;;;17.20;53.40;;;;;;5106311;28;20193;-68
2021/04/28 10:44:45;;;;;;;6.00;4.65;;;17.10;53.50;;;;;;5096978;28;20258;-69
2021/04/28 10:47:29;;;;;;;4.68;3.47;;;17.10;53.00;;;;;;5104553;28;20237;-69
2021/04/28 10:49:59;;;;;;;4.63;3.88;;;17.10;53.70;;;;;;5112092;28;20200;-69
2021/04/28 10:52:27;;;;;;;5.97;4.20;;;17.10;53.40;;;;;;5093211;28;20198;-68
2021/04/28 10:54:53;;;;;;;4.40;4.00;;;17.10;53.60;;;;;;5091307;28;20222;-69
2021/04/28 10:57:33;;;;;;;5.15;3.95;;;17.10;53.40;;;;;;5091285;28;20693;-69
2021/04/28 11:00:00;;;;;;;4.68;3.45;;;17.10;53.40;;;;;;5091908;28;20193;-69
2021/04/28 11:02:30;;;;;;;4.18;3.70;;;17.20;53.90;;;;;;5092428;28;20199;-69
2021/04/28 11:05:02;;;;;;;3.95;3.15;;;17.10;53.30;;;;;;5091064;28;20904;-69
2021/04/28 11:07:41;;;;;;;3.85;3.50;;;17.20;52.20;;;;;;5105051;28;21684;-68
2021/04/28 11:10:30;;;;;;;3.17;2.88;;;17.20;52.50;;;;;;5093346;28;20231;-69
2021/04/28 11:13:05;;;;;;;3.50;3.17;;;17.10;53.70;;;;;;5092356;27;20197;-69
2021/04/28 11:15:49;;;;;;;4.60;3.22;;;17.10;52.10;;;;;;5103555;28;20212;-68
2021/04/28 11:18:40;;;;;;;5.95;3.00;;;17.10;52.20;;;;;;5092041;28;20198;-68
2021/04/28 11:21:28;;;;;;;3.65;3.35;;;17.20;51.70;;;;;;5078629;28;20201;-69
2021/04/28 11:24:08;;;;;;;4.68;2.80;;;17.10;51.90;;;;;;5120440;27;20337;-69
2021/04/28 11:26:36;;;;;;;2.88;2.60;;;17.20;52.30;;;;;;5094311;28;20576;-68
2021/04/28 11:29:05;;;;;;;3.60;3.30;;;17.20;52.60;;;;;;5110918;28;20694;-68
2021/04/28 11:31:43;;;;;;;5.43;3.10;;;17.20;52.10;;;;;;5095362;28;20200;-69
2021/04/28 11:34:32;;;;;;;6.30;3.08;;;17.20;52.10;;;;;;5104076;28;20286;-68
2021/04/28 11:37:00;;;;;;;3.33;3.03;;;17.20;51.60;;;;;;5092543;28;20205;-69
2021/04/28 11:39:33;;;;;;;3.00;2.75;;;17.20;51.90;;;;;;5090702;28;20706;-69
2021/04/28 11:42:04;;;;;;;3.58;2.97;;;17.20;52.50;;;;;;5094244;28;20209;-69
2021/04/28 11:44:31;;;;;;;2.60;2.28;;;17.20;52.90;;;;;;5105439;28;20189;-69
2021/04/28 11:47:06;;;;;;;4.30;2.70;;;17.20;52.90;;;;;;5106896;28;20620;-68
2021/04/28 11:49:32;;;;;;;2.60;2.40;;;17.20;52.60;;;;;;5110411;28;20220;-70
2021/04/28 11:51:59;;;;;;;3.20;2.75;;;17.20;53.10;;;;;;5096156;28;20196;-68
2021/04/28 11:54:25;;;;;;;4.03;2.70;;;17.20;52.50;;;;;;5106499;28;20223;-69
2021/04/28 11:56:51;;;;;;;3.55;2.80;;;17.20;52.40;;;;;;5105241;28;20198;-69
2021/04/28 11:59:22;;;;;;;3.75;2.80;;;17.20;52.30;;;;;;5090961;28;20534;-68
2021/04/28 12:01:55;;;;;;;2.33;2.13;;;17.20;53.00;;;;;;5100343;28;20776;-68
2021/04/28 12:04:27;;;;;;;8.40;2.90;;;17.20;52.30;;;;;;5102215;28;20216;-68
2021/04/28 12:06:54;;;;;;;3.00;2.70;;;17.20;52.30;;;;;;5103055;28;20200;-68
2021/04/28 12:09:39;;;;;;;3.20;2.90;;;17.20;52.10;;;;;;5105152;28;20197;-68
2021/04/28 12:12:11;;;;;;;5.82;3.33;;;17.20;52.50;;;;;;5104317;28;20195;-68
2021/04/28 12:14:39;;;;;;;3.17;2.88;;;17.20;52.70;;;;;;5112030;28;20207;-68
2021/04/28 12:17:06;;;;;;;2.97;2.75;;;17.20;52.50;;;;;;5122739;28;20192;-68
2021/04/28 12:19:32;;;;;;;5.53;3.38;;;17.20;52.40;;;;;;5105811;28;20204;-68
2021/04/28 12:22:01;;;;;;;2.75;2.55;;;17.20;52.40;;;;;;5095725;28;20189;-69
2021/04/28 12:24:29;;;;;;;3.35;3.05;;;17.20;52.20;;;;;;5091245;28;20228;-70
2021/04/28 12:27:24;;;;;;;3.22;2.80;;;17.20;52.70;;;;;;5109540;28;20251;-68
2021/04/28 12:29:52;;;;;;;3.60;3.25;;;17.20;52.70;;;;;;5045014;28;20193;-69
2021/04/28 12:32:21;;;;;;;3.15;2.85;;;17.20;52.60;;;;;;5093797;28;20215;-69
2021/04/28 12:34:48;;;;;;;4.07;2.42;;;17.20;52.60;;;;;;5094033;28;20213;-69
2021/04/28 12:37:24;;;;;;;4.60;2.42;;;17.20;52.90;;;;;;5110046;28;20218;-69
2021/04/28 12:39:56;;;;;;;6.70;3.78;;;17.20;52.40;;;;;;5105962;28;20643;-69
2021/04/28 12:42:31;;;;;;;3.78;2.80;;;17.20;52.20;;;;;;5101419;28;20625;-68
2021/04/28 12:44:59;;;;;;;10.15;3.97;;;17.20;52.40;;;;;;5098832;28;20529;-67
2021/04/28 12:47:29;;;;;;;11.93;3.38;;;17.20;52.50;;;;;;5117078;27;20200;-68
2021/04/28 12:50:11;;;;;;;15.02;3.67;;;17.20;52.60;;;;;;5135471;27;20253;-68